sensor_id;sensor_type;location;lat;lon;timestamp;pressure;altitude;pressure_sealevel;temperature;humidity
74441;BME280;62870;54.692;25.284;2024-01-06T00:02:18;1000.2;;;26.3;11.4
74441;BME280;62870;54.692;25.284;2024-01-06T00:07:26;1000.3;;;26.3;11.2
74441;BME280;62870;54.692;25.284;2024-01-06T00:11:58;1000.4;;;26.2;11.2
74441;BME280;62870;54.692;25.284;2024-01-06T00:16:58;1000.4;;;26.3;11.6
74441;BME280;62870;54.692;25.284;2024-01-06T00:21:56;1000.5;;;26.3;11.8
74441;BME280;62870;54.692;25.284;2024-01-06T00:26:50;1000.5;;;26.3;11.8
74441;BME280;62870;54.692;25.284;2024-01-06T00:32:30;1000.6;;;26.3;11.3
74441;BME280;62870;54.692;25.284;2024-01-06T00:37:16;1000.6;;;26.3;11.1
74441;BME280;62870;54.692;25.284;2024-01-06T00:42:30;1000.6;;;26.2;11.1
74441;BME280;62870;54.692;25.284;2024-01-06T00:47:06;1000.7;;;26.3;11.4
74441;BME280;62870;54.692;25.284;2024-01-06T00:51:44;1000.7;;;26.3;11.6
74441;BME280;62870;54.692;25.284;2024-01-06T00:57:28;1000.7;;;26.3;11.7
74441;BME280;62870;54.692;25.284;2024-01-06T01:01:56;1000.8;;;26.3;11.2
74441;BME280;62870;54.692;25.284;2024-01-06T01:07:04;1000.8;;;26.3;11
74441;BME280;62870;54.692;25.284;2024-01-06T01:12:18;1000.9;;;26.3;11
74441;BME280;62870;54.692;25.284;2024-01-06T01:17:18;1001;;;26.3;11.2
74441;BME280;62870;54.692;25.284;2024-01-06T01:21:48;1001;;;26.3;11.5
74441;BME280;62870;54.692;25.284;2024-01-06T01:26:56;1001;;;26.3;11.6
74441;BME280;62870;54.692;25.284;2024-01-06T01:32:30;1001.1;;;26.3;11.4
74441;BME280;62870;54.692;25.284;2024-01-06T01:37:10;1001.1;;;26.3;11
74441;BME280;62870;54.692;25.284;2024-01-06T01:42:32;1001.1;;;26.3;10.9
74441;BME280;62870;54.692;25.284;2024-01-06T01:46:56;1001.1;;;26.3;11.1
74441;BME280;62870;54.692;25.284;2024-01-06T01:52:32;1001.1;;;26.3;11.4
74441;BME280;62870;54.692;25.284;2024-01-06T01:56:42;1001.2;;;26.3;11.5
74441;BME280;62870;54.692;25.284;2024-01-06T02:01:42;1001.2;;;26.3;11.1
74441;BME280;62870;54.692;25.284;2024-01-06T02:07:32;1001.3;;;26.3;10.9
74441;BME280;62870;54.692;25.284;2024-01-06T02:12:16;1001.3;;;26.3;10.8
74441;BME280;62870;54.692;25.284;2024-01-06T02:17:28;1001.3;;;26.3;11.1
74441;BME280;62870;54.692;25.284;2024-01-06T02:21:42;1001.3;;;26.3;11.3
74441;BME280;62870;54.692;25.284;2024-01-06T02:27:32;1001.2;;;26.3;11.4
74441;BME280;62870;54.692;25.284;2024-01-06T02:31:42;1001.3;;;26.3;11
74441;BME280;62870;54.692;25.284;2024-01-06T02:37:30;1001.2;;;26.3;10.8
74441;BME280;62870;54.692;25.284;2024-01-06T02:42:08;1001.2;;;26.3;10.8
74441;BME280;62870;54.692;25.284;2024-01-06T02:47:18;1001.2;;;26.3;11.1
74441;BME280;62870;54.692;25.284;2024-01-06T02:52:18;1001.3;;;26.3;11.3
74441;BME280;62870;54.692;25.284;2024-01-06T02:57:08;1001.3;;;26.3;11.3
74441;BME280;62870;54.692;25.284;2024-01-06T03:01:46;1001.3;;;26.3;10.8
74441;BME280;62870;54.692;25.284;2024-01-06T03:06:42;1001.3;;;26.3;10.7
74441;BME280;62870;54.692;25.284;2024-01-06T03:12:24;1001.3;;;26.2;10.7
74441;BME280;62870;54.692;25.284;2024-01-06T03:16:36;1001.3;;;26.2;10.9
74441;BME280;62870;54.692;25.284;2024-01-06T03:22:30;1001.3;;;26.2;11.2
74441;BME280;62870;54.692;25.284;2024-01-06T03:27:18;1001.3;;;26.2;11.3
74441;BME280;62870;54.692;25.284;2024-01-06T03:31:58;1001.3;;;26.2;10.8
74441;BME280;62870;54.692;25.284;2024-01-06T03:37:16;1001.3;;;26.2;10.7
74441;BME280;62870;54.692;25.284;2024-01-06T03:41:56;1001.4;;;26.2;10.7
74441;BME280;62870;54.692;25.284;2024-01-06T03:47:30;1001.4;;;26.2;11
74441;BME280;62870;54.692;25.284;2024-01-06T03:52:04;1001.4;;;26.2;11.2
74441;BME280;62870;54.692;25.284;2024-01-06T03:56:36;1001.5;;;26.2;11.3
74441;BME280;62870;54.692;25.284;2024-01-06T04:02:28;1001.5;;;26.2;10.8
74441;BME280;62870;54.692;25.284;2024-01-06T04:07:30;1001.5;;;26.1;10.7
74441;BME280;62870;54.692;25.284;2024-01-06T04:11:36;1001.5;;;26.1;10.7
74441;BME280;62870;54.692;25.284;2024-01-06T04:16:36;1001.5;;;26.1;11
74441;BME280;62870;54.692;25.284;2024-01-06T04:22:16;1001.5;;;26.2;11.2
74441;BME280;62870;54.692;25.284;2024-01-06T04:27:18;1001.5;;;26.2;11.3
74441;BME280;62870;54.692;25.284;2024-01-06T04:31:36;1001.5;;;26.1;10.9
74441;BME280;62870;54.692;25.284;2024-01-06T04:36:36;1001.5;;;26.1;10.8
74441;BME280;62870;54.692;25.284;2024-01-06T04:42:04;1001.6;;;26.1;10.8
74441;BME280;62870;54.692;25.284;2024-01-06T04:46:44;1001.7;;;26.1;11.1
74441;BME280;62870;54.692;25.284;2024-01-06T04:51:56;1001.7;;;26.2;11.2
74441;BME280;62870;54.692;25.284;2024-01-06T04:57:28;1001.7;;;26.2;11.3
74441;BME280;62870;54.692;25.284;2024-01-06T05:02:18;1001.8;;;26.2;11
74441;BME280;62870;54.692;25.284;2024-01-06T05:07:28;1001.9;;;26.2;10.9
74441;BME280;62870;54.692;25.284;2024-01-06T05:11:48;1001.9;;;26.1;10.9
74441;BME280;62870;54.692;25.284;2024-01-06T05:17:00;1001.9;;;26.1;11
74441;BME280;62870;54.692;25.284;2024-01-06T05:22:08;1002;;;26.2;11.2
74441;BME280;62870;54.692;25.284;2024-01-06T05:27:00;1002;;;26.2;11.3
74441;BME280;62870;54.692;25.284;2024-01-06T05:32:04;1002;;;26.2;11.2
74441;BME280;62870;54.692;25.284;2024-01-06T05:37:14;1002;;;26.2;11
74441;BME280;62870;54.692;25.284;2024-01-06T05:42:30;1002;;;26.2;10.9
74441;BME280;62870;54.692;25.284;2024-01-06T05:46:44;1002.1;;;26.2;11.1
74441;BME280;62870;54.692;25.284;2024-01-06T05:51:36;1002.1;;;26.2;11.3
74441;BME280;62870;54.692;25.284;2024-01-06T05:57:30;1002.1;;;26.2;11.4
74441;BME280;62870;54.692;25.284;2024-01-06T06:01:36;1002.1;;;26.3;11.3
74441;BME280;62870;54.692;25.284;2024-01-06T06:06:36;1002.2;;;26.2;11
74441;BME280;62870;54.692;25.284;2024-01-06T06:11:56;1002.2;;;26.2;11
74441;BME280;62870;54.692;25.284;2024-01-06T06:17:30;1002.3;;;26.2;11
74441;BME280;62870;54.692;25.284;2024-01-06T06:21:42;1002.4;;;26.2;11.2
74441;BME280;62870;54.692;25.284;2024-01-06T06:26:44;1002.4;;;26.2;11.4
74441;BME280;62870;54.692;25.284;2024-01-06T06:32:08;1002.4;;;26.3;11.4
74441;BME280;62870;54.692;25.284;2024-01-06T06:37:18;1002.4;;;26.3;11.2
74441;BME280;62870;54.692;25.284;2024-01-06T06:42:28;1002.5;;;26.2;11.1
74441;BME280;62870;54.692;25.284;2024-01-06T06:46:50;1002.6;;;26.2;11.1
74441;BME280;62870;54.692;25.284;2024-01-06T06:52:08;1002.6;;;26.2;11.2
74441;BME280;62870;54.692;25.284;2024-01-06T06:57:04;1002.6;;;26.2;11.4
74441;BME280;62870;54.692;25.284;2024-01-06T07:02:16;1002.7;;;26.3;11.5
74441;BME280;62870;54.692;25.284;2024-01-06T07:07:09;1002.7;;;26.3;11.1
74441;BME280;62870;54.692;25.284;2024-01-06T07:12:16;1002.7;;;26.2;11.1
74441;BME280;62870;54.692;25.284;2024-01-06T07:17:18;1002.7;;;26.2;11.1
74441;BME280;62870;54.692;25.284;2024-01-06T07:22:08;1002.8;;;26.2;11.3
74441;BME280;62870;54.692;25.284;2024-01-06T07:26:46;1002.9;;;26.3;11.4
74441;BME280;62870;54.692;25.284;2024-01-06T07:32:16;1002.9;;;26.3;11.5
74441;BME280;62870;54.692;25.284;2024-01-06T07:37:30;1002.8;;;26.3;11.3
74441;BME280;62870;54.692;25.284;2024-01-06T07:42:16;1002.9;;;26.2;11.1
74441;BME280;62870;54.692;25.284;2024-01-06T07:47:30;1002.9;;;26.2;11.1
74441;BME280;62870;54.692;25.284;2024-01-06T07:52:28;1003;;;26.2;11.3
74441;BME280;62870;54.692;25.284;2024-01-06T07:57:28;1003.1;;;26.3;11.4
74441;BME280;62870;54.692;25.284;2024-01-06T08:01:36;1003.1;;;26.3;11.5
74441;BME280;62870;54.692;25.284;2024-01-06T08:06:42;1003.1;;;26.3;11.4
74441;BME280;62870;54.692;25.284;2024-01-06T08:12:28;1003.1;;;26.2;11.2
74441;BME280;62870;54.692;25.284;2024-01-06T08:16:44;1003.2;;;26.2;11.2
74441;BME280;62870;54.692;25.284;2024-01-06T08:22:04;1003.2;;;26.2;11.2
74441;BME280;62870;54.692;25.284;2024-01-06T08:27:16;1003.3;;;26.3;11.4
74441;BME280;62870;54.692;25.284;2024-01-06T08:32:06;1003.3;;;26.3;11.5
74441;BME280;62870;54.692;25.284;2024-01-06T08:37:18;1003.4;;;26.3;11.5
74441;BME280;62870;54.692;25.284;2024-01-06T08:41:56;1003.4;;;26.3;11.2
74441;BME280;62870;54.692;25.284;2024-01-06T08:47:16;1003.4;;;26.2;11.2
74441;BME280;62870;54.692;25.284;2024-01-06T08:52:18;1003.4;;;26.2;11.3
74441;BME280;62870;54.692;25.284;2024-01-06T08:56:56;1003.5;;;26.3;11.5
74441;BME280;62870;54.692;25.284;2024-01-06T09:01:52;1003.5;;;26.3;11.6
74441;BME280;62870;54.692;25.284;2024-01-06T09:06:44;1003.5;;;26.3;11.5
74441;BME280;62870;54.692;25.284;2024-01-06T09:11:42;1003.4;;;26.3;11.3
74441;BME280;62870;54.692;25.284;2024-01-06T09:16:54;1003.5;;;26.3;11.3
74441;BME280;62870;54.692;25.284;2024-01-06T09:22:28;1003.4;;;26.3;11.3
74441;BME280;62870;54.692;25.284;2024-01-06T09:27:28;1003.5;;;26.3;11.5
74441;BME280;62870;54.692;25.284;2024-01-06T09:32:30;1003.5;;;26.3;11.6
74441;BME280;62870;54.692;25.284;2024-01-06T09:36:56;1003.6;;;26.3;11.6
74441;BME280;62870;54.692;25.284;2024-01-06T09:41:42;1003.7;;;26.3;11.4
74441;BME280;62870;54.692;25.284;2024-01-06T09:46:38;1003.7;;;26.3;11.3
74441;BME280;62870;54.692;25.284;2024-01-06T09:51:57;1003.7;;;26.3;11.3
74441;BME280;62870;54.692;25.284;2024-01-06T09:57:12;1003.7;;;26.3;11.5
74441;BME280;62870;54.692;25.284;2024-01-06T10:02:14;1003.7;;;26.4;11.6
74441;BME280;62870;54.692;25.284;2024-01-06T10:07:28;1003.7;;;26.4;11.7
74441;BME280;62870;54.692;25.284;2024-01-06T10:11:58;1003.7;;;26.4;11.4
74441;BME280;62870;54.692;25.284;2024-01-06T10:16:52;1003.7;;;26.3;11.3
74441;BME280;62870;54.692;25.284;2024-01-06T10:22:30;1003.8;;;26.3;11.3
74441;BME280;62870;54.692;25.284;2024-01-06T10:26:56;1003.8;;;26.3;11.5
74441;BME280;62870;54.692;25.284;2024-01-06T10:32:04;1003.8;;;26.4;11.6
74441;BME280;62870;54.692;25.284;2024-01-06T10:36:52;1003.8;;;26.4;11.7
74441;BME280;62870;54.692;25.284;2024-01-06T10:42:28;1003.8;;;26.4;11.5
74441;BME280;62870;54.692;25.284;2024-01-06T10:46:56;1003.8;;;26.4;11.3
74441;BME280;62870;54.692;25.284;2024-01-06T10:52:12;1003.8;;;26.3;11.3
74441;BME280;62870;54.692;25.284;2024-01-06T10:57:04;1003.8;;;26.3;11.4
74441;BME280;62870;54.692;25.284;2024-01-06T11:02:28;1003.8;;;26.4;11.6
74441;BME280;62870;54.692;25.284;2024-01-06T11:07:28;1003.8;;;26.4;11.6
74441;BME280;62870;54.692;25.284;2024-01-06T11:11:52;1003.7;;;26.4;11.5
74441;BME280;62870;54.692;25.284;2024-01-06T11:18:00;1003.7;;;26.4;11.3
74441;BME280;62870;54.692;25.284;2024-01-06T11:21:50;1003.7;;;26.3;11.3
74441;BME280;62870;54.692;25.284;2024-01-06T11:27:26;1003.7;;;26.4;11.4
74441;BME280;62870;54.692;25.284;2024-01-06T11:32:38;1003.7;;;26.4;11.5
74441;BME280;62870;54.692;25.284;2024-01-06T11:36:38;1003.8;;;26.4;11.6
74441;BME280;62870;54.692;25.284;2024-01-06T11:42:16;1003.9;;;26.4;11.6
74441;BME280;62870;54.692;25.284;2024-01-06T11:47:08;1003.9;;;26.4;11.3
74441;BME280;62870;54.692;25.284;2024-01-06T11:51:52;1004;;;26.4;11.3
74441;BME280;62870;54.692;25.284;2024-01-06T11:56:56;1004.1;;;26.3;11.3
74441;BME280;62870;54.692;25.284;2024-01-06T12:02:28;1004.1;;;26.4;11.5
74441;BME280;62870;54.692;25.284;2024-01-06T12:06:38;1004.2;;;26.4;11.6
74441;BME280;62870;54.692;25.284;2024-01-06T12:12:15;1004.2;;;26.4;11.6
74441;BME280;62870;54.692;25.284;2024-01-06T12:17:30;1004.3;;;26.4;11.3
74441;BME280;62870;54.692;25.284;2024-01-06T12:22:14;1004.3;;;26.4;11.2
74441;BME280;62870;54.692;25.284;2024-01-06T12:27:06;1004.3;;;26.3;11.2
74441;BME280;62870;54.692;25.284;2024-01-06T12:31:58;1004.4;;;26.4;11.4
74441;BME280;62870;54.692;25.284;2024-01-06T12:37:16;1004.5;;;26.4;11.5
74441;BME280;62870;54.692;25.284;2024-01-06T12:41:56;1004.5;;;26.4;11.5
74441;BME280;62870;54.692;25.284;2024-01-06T12:47:04;1004.5;;;26.4;11.3
74441;BME280;62870;54.692;25.284;2024-01-06T12:52:30;1004.5;;;26.4;11.2
74441;BME280;62870;54.692;25.284;2024-01-06T12:57:11;1004.5;;;26.3;11.2
74441;BME280;62870;54.692;25.284;2024-01-06T13:01:48;1004.6;;;26.4;11.3
74441;BME280;62870;54.692;25.284;2024-01-06T13:06:44;1004.7;;;26.4;11.5
74441;BME280;62870;54.692;25.284;2024-01-06T13:12:08;1004.7;;;26.4;11.5
74441;BME280;62870;54.692;25.284;2024-01-06T13:17:30;1004.8;;;26.4;11.3
74441;BME280;62870;54.692;25.284;2024-01-06T13:21:54;1004.8;;;26.4;11.2
74441;BME280;62870;54.692;25.284;2024-01-06T13:26:44;1004.8;;;26.3;11.2
74441;BME280;62870;54.692;25.284;2024-01-06T13:31:44;1004.9;;;26.3;11.3
74441;BME280;62870;54.692;25.284;2024-01-06T13:36:56;1005;;;26.4;11.5
74441;BME280;62870;54.692;25.284;2024-01-06T13:42:16;1005.1;;;26.4;11.5
74441;BME280;62870;54.692;25.284;2024-01-06T13:47:08;1005.1;;;26.4;11.4
74441;BME280;62870;54.692;25.284;2024-01-06T13:52:16;1005.2;;;26.3;11.2
74441;BME280;62870;54.692;25.284;2024-01-06T13:56:50;1005.2;;;26.3;11.2
74441;BME280;62870;54.692;25.284;2024-01-06T14:02:30;1005.2;;;26.3;11.3
74441;BME280;62870;54.692;25.284;2024-01-06T14:06:56;1005.3;;;26.3;11.4
74441;BME280;62870;54.692;25.284;2024-01-06T14:11:36;1005.3;;;26.4;11.5
74441;BME280;62870;54.692;25.284;2024-01-06T14:17:04;1005.4;;;26.4;11.4
74441;BME280;62870;54.692;25.284;2024-01-06T14:21:36;1005.3;;;26.3;11.2
74441;BME280;62870;54.692;25.284;2024-01-06T14:26:44;1005.3;;;26.3;11.2
74441;BME280;62870;54.692;25.284;2024-01-06T14:32:32;1005.4;;;26.3;11.2
74441;BME280;62870;54.692;25.284;2024-01-06T14:37:10;1005.5;;;26.3;11.4
74441;BME280;62870;54.692;25.284;2024-01-06T14:42:16;1005.5;;;26.3;11.4
74441;BME280;62870;54.692;25.284;2024-01-06T14:46:56;1005.6;;;26.3;11.4
74441;BME280;62870;54.692;25.284;2024-01-06T14:52:18;1005.6;;;26.3;11.2
74441;BME280;62870;54.692;25.284;2024-01-06T14:57:18;1005.7;;;26.3;11.1
74441;BME280;62870;54.692;25.284;2024-01-06T15:01:56;1005.7;;;26.2;11.1
74441;BME280;62870;54.692;25.284;2024-01-06T15:06:46;1005.7;;;26.3;11.3
74441;BME280;62870;54.692;25.284;2024-01-06T15:11:36;1005.8;;;26.3;11.4
74441;BME280;62870;54.692;25.284;2024-01-06T15:16:44;1005.8;;;26.3;11.4
74441;BME280;62870;54.692;25.284;2024-01-06T15:22:30;1005.8;;;26.3;11.1
74441;BME280;62870;54.692;25.284;2024-01-06T15:26:56;1005.9;;;26.3;11
74441;BME280;62870;54.692;25.284;2024-01-06T15:31:58;1005.8;;;26.2;11
74441;BME280;62870;54.692;25.284;2024-01-06T15:37:32;1005.8;;;26.3;11.1
74441;BME280;62870;54.692;25.284;2024-01-06T15:41:54;1005.8;;;26.3;11.3
74441;BME280;62870;54.692;25.284;2024-01-06T15:47:18;1005.9;;;26.3;11.3
74441;BME280;62870;54.692;25.284;2024-01-06T15:51:54;1005.9;;;26.3;11.2
74441;BME280;62870;54.692;25.284;2024-01-06T15:56:44;1006;;;26.3;10.9
74441;BME280;62870;54.692;25.284;2024-01-06T16:01:48;1006;;;26.2;10.9
74441;BME280;62870;54.692;25.284;2024-01-06T16:07:18;1006;;;26.2;10.9
74441;BME280;62870;54.692;25.284;2024-01-06T16:12:32;1006.1;;;26.3;11.1
74441;BME280;62870;54.692;25.284;2024-01-06T16:16:44;1006.2;;;26.3;11.2
74441;BME280;62870;54.692;25.284;2024-01-06T16:22:18;1006.2;;;26.3;11.2
74441;BME280;62870;54.692;25.284;2024-01-06T16:27:32;1006.2;;;26.3;10.9
74441;BME280;62870;54.692;25.284;2024-01-06T16:31:36;1006.3;;;26.2;10.8
74441;BME280;62870;54.692;25.284;2024-01-06T16:37:18;1006.4;;;26.2;10.8
74441;BME280;62870;54.692;25.284;2024-01-06T16:42:18;1006.4;;;26.2;11
74441;BME280;62870;54.692;25.284;2024-01-06T16:47:08;1006.5;;;26.3;11.1
74441;BME280;62870;54.692;25.284;2024-01-06T16:51:44;1006.6;;;26.3;11.1
74441;BME280;62870;54.692;25.284;2024-01-06T16:56:48;1006.7;;;26.3;10.9
74441;BME280;62870;54.692;25.284;2024-01-06T17:02:32;1006.7;;;26.2;10.7
74441;BME280;62870;54.692;25.284;2024-01-06T17:06:36;1006.7;;;26.2;10.7
74441;BME280;62870;54.692;25.284;2024-01-06T17:11:58;1006.8;;;26.2;10.8
74441;BME280;62870;54.692;25.284;2024-01-06T17:17:30;1006.9;;;26.3;11
74441;BME280;62870;54.692;25.284;2024-01-06T17:21:56;1007;;;26.3;11.1
74441;BME280;62870;54.692;25.284;2024-01-06T17:26:46;1007;;;26.3;10.8
74441;BME280;62870;54.692;25.284;2024-01-06T17:32:10;1007.1;;;26.2;10.7
74441;BME280;62870;54.692;25.284;2024-01-06T17:37:00;1007.2;;;26.2;10.6
74441;BME280;62870;54.692;25.284;2024-01-06T17:42:18;1007.3;;;26.2;10.8
74441;BME280;62870;54.692;25.284;2024-01-06T17:46:56;1007.3;;;26.3;10.9
74441;BME280;62870;54.692;25.284;2024-01-06T17:52:32;1007.4;;;26.3;11
74441;BME280;62870;54.692;25.284;2024-01-06T17:56:56;1007.5;;;26.3;10.9
74441;BME280;62870;54.692;25.284;2024-01-06T18:02:18;1007.5;;;26.3;10.6
74441;BME280;62870;54.692;25.284;2024-01-06T18:07:32;1007.7;;;26.2;10.6
74441;BME280;62870;54.692;25.284;2024-01-06T18:11:50;1007.7;;;26.2;10.7
74441;BME280;62870;54.692;25.284;2024-01-06T18:17:18;1007.8;;;26.3;10.9
74441;BME280;62870;54.692;25.284;2024-01-06T18:21:56;1007.9;;;26.3;10.9
74441;BME280;62870;54.692;25.284;2024-01-06T18:26:56;1007.9;;;26.3;10.7
74441;BME280;62870;54.692;25.284;2024-01-06T18:31:36;1008;;;26.2;10.5
74441;BME280;62870;54.692;25.284;2024-01-06T18:36:56;1008;;;26.2;10.5
74441;BME280;62870;54.692;25.284;2024-01-06T18:42:24;1008;;;26.2;10.6
74441;BME280;62870;54.692;25.284;2024-01-06T18:46:56;1007.9;;;26.2;10.8
74441;BME280;62870;54.692;25.284;2024-01-06T18:52:16;1007.9;;;26.3;10.8
74441;BME280;62870;54.692;25.284;2024-01-06T18:57:18;1008;;;26.2;10.5
74441;BME280;62870;54.692;25.284;2024-01-06T19:01:56;1008.1;;;26.2;10.4
74441;BME280;62870;54.692;25.284;2024-01-06T19:07:18;1008.2;;;26.2;10.4
74441;BME280;62870;54.692;25.284;2024-01-06T19:11:36;1008.2;;;26.2;10.6
74441;BME280;62870;54.692;25.284;2024-01-06T19:16:56;1008.2;;;26.2;10.7
74441;BME280;62870;54.692;25.284;2024-01-06T19:21:57;1008.3;;;26.3;10.7
74441;BME280;62870;54.692;25.284;2024-01-06T19:26:56;1008.3;;;26.2;10.4
74441;BME280;62870;54.692;25.284;2024-01-06T19:32:18;1008.4;;;26.2;10.4
74441;BME280;62870;54.692;25.284;2024-01-06T19:36:50;1008.5;;;26.2;10.4
74441;BME280;62870;54.692;25.284;2024-01-06T19:42:30;1008.6;;;26.2;10.6
74441;BME280;62870;54.692;25.284;2024-01-06T19:47:19;1008.6;;;26.3;10.6
74441;BME280;62870;54.692;25.284;2024-01-06T19:51:54;1008.6;;;26.3;10.7
74441;BME280;62870;54.692;25.284;2024-01-06T19:57:28;1008.6;;;26.3;10.4
74441;BME280;62870;54.692;25.284;2024-01-06T20:01:48;1008.6;;;26.3;10.3
74441;BME280;62870;54.692;25.284;2024-01-06T20:06:36;1008.6;;;26.3;10.3
74441;BME280;62870;54.692;25.284;2024-01-06T20:11:56;1008.6;;;26.3;10.4
74441;BME280;62870;54.692;25.284;2024-01-06T20:16:56;1008.7;;;26.4;10.6
74441;BME280;62870;54.692;25.284;2024-01-06T20:22:18;1008.8;;;26.4;10.6
74441;BME280;62870;54.692;25.284;2024-01-06T20:27:10;1008.9;;;26.4;10.5
74441;BME280;62870;54.692;25.284;2024-01-06T20:32:32;1008.9;;;26.3;10.2
74441;BME280;62870;54.692;25.284;2024-01-06T20:37:18;1008.9;;;26.3;10.2
74441;BME280;62870;54.692;25.284;2024-01-06T20:41:46;1008.9;;;26.3;10.2
74441;BME280;62870;54.692;25.284;2024-01-06T20:47:10;1009;;;26.4;10.5
74441;BME280;62870;54.692;25.284;2024-01-06T20:51:36;1009;;;26.4;10.5
74441;BME280;62870;54.692;25.284;2024-01-06T20:56:56;1009.1;;;26.4;10.5
74441;BME280;62870;54.692;25.284;2024-01-06T21:01:36;1009;;;26.4;10.2
74441;BME280;62870;54.692;25.284;2024-01-06T21:07:32;1009;;;26.3;10.1
74441;BME280;62870;54.692;25.284;2024-01-06T21:11:58;1009;;;26.3;10.2
74441;BME280;62870;54.692;25.284;2024-01-06T21:17:16;1009.1;;;26.4;10.4
74441;BME280;62870;54.692;25.284;2024-01-06T21:22:06;1009.1;;;26.4;10.5
74441;BME280;62870;54.692;25.284;2024-01-06T21:27:18;1009.2;;;26.4;10.4
74441;BME280;62870;54.692;25.284;2024-01-06T21:31:42;1009.3;;;26.4;10.1
74441;BME280;62870;54.692;25.284;2024-01-06T21:37:32;1009.3;;;26.4;10.1
74441;BME280;62870;54.692;25.284;2024-01-06T21:42:32;1009.4;;;26.4;10.1
74441;BME280;62870;54.692;25.284;2024-01-06T21:46:56;1009.4;;;26.4;10.3
74441;BME280;62870;54.692;25.284;2024-01-06T21:52:10;1009.4;;;26.4;10.4
74441;BME280;62870;54.692;25.284;2024-01-06T21:56:56;1009.6;;;26.5;10.4
74441;BME280;62870;54.692;25.284;2024-01-06T22:02:18;1009.6;;;26.4;10.1
74441;BME280;62870;54.692;25.284;2024-01-06T22:06:46;1009.6;;;26.4;10
74441;BME280;62870;54.692;25.284;2024-01-06T22:12:32;1009.7;;;26.4;10
74441;BME280;62870;54.692;25.284;2024-01-06T22:17:19;1009.8;;;26.4;10.2
74441;BME280;62870;54.692;25.284;2024-01-06T22:21:56;1009.8;;;26.5;10.3
74441;BME280;62870;54.692;25.284;2024-01-06T22:27:32;1009.8;;;26.5;10.4
74441;BME280;62870;54.692;25.284;2024-01-06T22:31:40;1009.8;;;26.5;10.1
74441;BME280;62870;54.692;25.284;2024-01-06T22:36:36;1009.8;;;26.4;10
74441;BME280;62870;54.692;25.284;2024-01-06T22:41:36;1009.8;;;26.4;10
74441;BME280;62870;54.692;25.284;2024-01-06T22:46:44;1009.8;;;26.5;10.2
74441;BME280;62870;54.692;25.284;2024-01-06T22:52:18;1009.8;;;26.5;10.3
74441;BME280;62870;54.692;25.284;2024-01-06T22:57:18;1009.8;;;26.5;10.3
74441;BME280;62870;54.692;25.284;2024-01-06T23:02:32;1009.8;;;26.5;10.2
74441;BME280;62870;54.692;25.284;2024-01-06T23:07:16;1009.9;;;26.5;10
74441;BME280;62870;54.692;25.284;2024-01-06T23:12:18;1009.9;;;26.5;10
74441;BME280;62870;54.692;25.284;2024-01-06T23:17:32;1009.9;;;26.5;10
74441;BME280;62870;54.692;25.284;2024-01-06T23:22:10;1009.9;;;26.5;10.2
74441;BME280;62870;54.692;25.284;2024-01-06T23:26:36;1010;;;26.5;10.3
74441;BME280;62870;54.692;25.284;2024-01-06T23:31:36;1010;;;26.5;10.2
74441;BME280;62870;54.692;25.284;2024-01-06T23:36:57;1010.1;;;26.5;9.9
74441;BME280;62870;54.692;25.284;2024-01-06T23:42:18;1010.2;;;26.5;9.9
74441;BME280;62870;54.692;25.284;2024-01-06T23:47:18;1010.2;;;26.5;10
74441;BME280;62870;54.692;25.284;2024-01-06T23:51:56;1010.3;;;26.5;10.1
74441;BME280;62870;54.692;25.284;2024-01-06T23:57:32;1010.3;;;26.5;10.2
